Time;durP1;ratioP1;P1;durP2;ratioP2;P2;SDS_P1;SDS_P2;PMS_P1;PMS_P2;Temp;Humidity;BMP_temperature;BMP_pressure;BME280_temperature;BME280_humidity;BME280_pressure;Samples;Min_cycle;Max_cycle;Signal;HPM_P1;HPM_P2
2021/10/19 00:00:53;;;;;;;38.35;22.63;;;14.80;99.90;;;;;;5071455;28;20217;-75
2021/10/19 00:03:18;;;;;;;36.58;22.75;;;14.80;99.90;;;;;;5077666;28;20272;-76
2021/10/19 00:05:44;;;;;;;35.83;22.88;;;14.80;99.90;;;;;;5090943;28;20225;-75
2021/10/19 00:08:10;;;;;;;37.83;23.35;;;14.80;99.90;;;;;;5067939;28;20218;-73
2021/10/19 00:10:35;;;;;;;31.83;22.17;;;14.80;99.90;;;;;;5088044;28;20309;-77
2021/10/19 00:13:01;;;;;;;30.05;22.65;;;14.80;99.90;;;;;;5086641;28;20186;-75
2021/10/19 00:15:26;;;;;;;35.45;22.55;;;14.80;99.90;;;;;;5095661;28;20260;-76
2021/10/19 00:17:52;;;;;;;32.80;22.90;;;14.80;99.90;;;;;;5088281;28;20235;-76
2021/10/19 00:20:18;;;;;;;33.03;23.15;;;14.80;99.90;;;;;;5075584;28;21007;-76
2021/10/19 00:22:44;;;;;;;32.58;22.73;;;14.80;99.90;;;;;;5069603;28;20185;-76
2021/10/19 00:25:14;;;;;;;36.95;22.60;;;14.80;99.90;;;;;;5072252;28;20192;-75
2021/10/19 00:27:41;;;;;;;35.55;22.08;;;14.90;99.90;;;;;;5063907;28;20235;-76
2021/10/19 00:30:09;;;;;;;37.72;22.48;;;14.80;99.90;;;;;;5098948;28;20186;-76
2021/10/19 00:32:36;;;;;;;32.90;22.55;;;14.90;99.90;;;;;;5054219;28;20189;-76
2021/10/19 00:35:02;;;;;;;31.73;22.65;;;14.90;99.90;;;;;;5075086;28;20186;-76
2021/10/19 00:37:27;;;;;;;28.33;22.05;;;14.80;99.90;;;;;;5091150;28;20223;-77
2021/10/19 00:39:53;;;;;;;32.00;22.27;;;14.90;99.90;;;;;;5073339;28;20182;-76
2021/10/19 00:42:18;;;;;;;37.10;23.13;;;14.80;99.90;;;;;;5071678;28;21106;-76
2021/10/19 00:44:44;;;;;;;34.78;23.25;;;14.90;99.90;;;;;;5070433;28;20626;-76
2021/10/19 00:47:10;;;;;;;35.17;23.58;;;14.80;99.90;;;;;;5070865;28;20217;-76
2021/10/19 00:49:36;;;;;;;34.97;24.23;;;14.80;99.90;;;;;;5093756;28;20797;-78
2021/10/19 00:52:03;;;;;;;35.55;23.90;;;14.80;99.90;;;;;;5090723;28;20205;-77
2021/10/19 00:54:29;;;;;;;38.08;23.85;;;14.80;99.90;;;;;;5095999;28;20212;-77
2021/10/19 00:56:55;;;;;;;35.78;24.10;;;14.80;99.90;;;;;;5072919;28;20213;-77
2021/10/19 00:59:21;;;;;;;40.33;25.00;;;14.80;99.90;;;;;;5087573;28;20251;-76
2021/10/19 01:01:48;;;;;;;38.00;25.08;;;14.70;99.90;;;;;;5080207;28;20229;-74
2021/10/19 01:04:14;;;;;;;37.13;25.50;;;14.80;99.90;;;;;;5111370;28;20689;-77
2021/10/19 01:06:40;;;;;;;36.20;25.30;;;14.80;99.90;;;;;;5073436;28;20222;-77
2021/10/19 01:09:08;;;;;;;39.55;24.80;;;14.70;99.90;;;;;;5084343;28;20186;-74
2021/10/19 01:11:34;;;;;;;40.22;25.55;;;14.70;99.90;;;;;;5085490;28;20226;-74
2021/10/19 01:13:59;;;;;;;41.03;25.67;;;14.80;99.90;;;;;;5070963;28;20255;-74
2021/10/19 01:16:25;;;;;;;38.83;25.75;;;14.70;99.90;;;;;;5085942;28;20273;-75
2021/10/19 01:18:50;;;;;;;40.70;25.27;;;14.80;99.90;;;;;;5069836;28;20745;-75
2021/10/19 01:21:16;;;;;;;40.42;25.95;;;14.70;99.90;;;;;;5080553;28;20193;-75
2021/10/19 01:23:42;;;;;;;38.83;26.48;;;14.70;99.90;;;;;;5086962;28;20238;-74
2021/10/19 01:26:09;;;;;;;39.80;25.38;;;14.80;99.90;;;;;;5090765;28;20177;-74
2021/10/19 01:28:40;;;;;;;43.15;26.63;;;14.80;99.90;;;;;;5088983;28;20181;-74
2021/10/19 01:31:06;;;;;;;38.03;25.40;;;14.70;99.90;;;;;;5069682;28;20259;-74
2021/10/19 01:33:32;;;;;;;37.08;24.88;;;14.80;99.90;;;;;;5070406;28;20594;-74
2021/10/19 01:35:57;;;;;;;42.33;26.33;;;14.80;99.90;;;;;;5088954;28;20182;-74
2021/10/19 01:38:28;;;;;;;41.33;26.67;;;14.80;99.90;;;;;;5086386;28;20227;-73
2021/10/19 01:40:56;;;;;;;40.75;27.33;;;14.80;99.90;;;;;;5070728;28;20235;-74
2021/10/19 01:43:24;;;;;;;40.72;27.23;;;14.80;99.90;;;;;;5089329;28;20610;-74
2021/10/19 01:45:51;;;;;;;36.40;26.17;;;14.80;99.90;;;;;;5089154;28;20186;-73
2021/10/19 01:48:17;;;;;;;45.08;27.25;;;14.80;99.90;;;;;;5088042;28;20182;-74
2021/10/19 01:50:44;;;;;;;41.72;28.25;;;14.80;99.90;;;;;;5089450;28;20638;-75
2021/10/19 01:53:10;;;;;;;42.95;27.05;;;14.80;99.90;;;;;;5086302;28;20186;-74
2021/10/19 01:55:37;;;;;;;44.10;27.92;;;14.80;99.90;;;;;;5093164;28;20213;-75
2021/10/19 01:58:04;;;;;;;45.55;29.20;;;14.80;99.90;;;;;;5072590;28;20240;-75
2021/10/19 02:00:29;;;;;;;49.85;30.27;;;14.80;99.90;;;;;;5071064;28;20217;-75
2021/10/19 02:02:55;;;;;;;43.63;29.00;;;14.90;99.90;;;;;;5074107;28;20174;-74
2021/10/19 02:05:20;;;;;;;46.65;31.35;;;14.90;99.90;;;;;;5088942;28;20186;-74
2021/10/19 02:07:46;;;;;;;48.47;31.30;;;14.90;99.90;;;;;;5088143;28;20197;-76
2021/10/19 02:10:12;;;;;;;47.15;31.50;;;14.90;99.90;;;;;;5089694;28;20221;-75
2021/10/19 02:12:39;;;;;;;50.97;32.03;;;14.90;99.90;;;;;;5069765;28;20967;-75
2021/10/19 02:15:06;;;;;;;46.90;32.33;;;14.90;99.90;;;;;;5089268;28;20190;-74
2021/10/19 02:17:32;;;;;;;53.65;33.38;;;14.90;99.90;;;;;;5060720;28;20192;-74
2021/10/19 02:20:00;;;;;;;52.55;33.50;;;14.90;99.90;;;;;;5092971;28;20264;-75
2021/10/19 02:22:27;;;;;;;53.08;33.40;;;15.00;99.90;;;;;;5106333;27;20208;-75
2021/10/19 02:24:52;;;;;;;52.15;33.75;;;15.00;99.90;;;;;;5088403;28;20217;-75
2021/10/19 02:27:18;;;;;;;52.50;34.15;;;15.00;99.90;;;;;;5091183;28;20669;-75
2021/10/19 02:29:44;;;;;;;54.95;33.92;;;15.00;99.90;;;;;;5070925;28;20217;-75
2021/10/19 02:32:09;;;;;;;52.30;34.10;;;15.00;99.90;;;;;;5086238;28;20234;-75
2021/10/19 02:34:35;;;;;;;55.50;34.05;;;15.00;99.90;;;;;;5074364;28;20233;-74
2021/10/19 02:37:01;;;;;;;52.33;34.42;;;15.00;99.90;;;;;;5089793;28;20185;-75
2021/10/19 02:39:26;;;;;;;55.15;33.83;;;15.00;99.90;;;;;;5088584;28;20182;-75
2021/10/19 02:41:52;;;;;;;51.50;33.70;;;15.00;99.90;;;;;;5086470;28;20189;-75
2021/10/19 02:44:18;;;;;;;54.20;34.67;;;15.10;99.90;;;;;;5089474;28;20180;-74
2021/10/19 02:46:43;;;;;;;53.10;34.17;;;15.00;99.90;;;;;;5070033;28;20317;-73
2021/10/19 02:49:09;;;;;;;55.67;35.00;;;15.00;99.90;;;;;;5086345;28;20331;-74
2021/10/19 02:51:35;;;;;;;55.90;34.42;;;15.10;99.90;;;;;;5087054;28;20698;-74
2021/10/19 02:54:00;;;;;;;58.75;34.47;;;15.00;99.90;;;;;;5087164;28;20227;-74
2021/10/19 02:56:26;;;;;;;58.72;36.42;;;15.00;99.90;;;;;;5086157;28;20181;-74
2021/10/19 02:58:52;;;;;;;54.70;34.40;;;15.00;99.90;;;;;;5086613;28;20216;-74
2021/10/19 03:01:17;;;;;;;57.67;35.47;;;15.00;99.90;;;;;;5068851;28;20255;-75
2021/10/19 03:03:43;;;;;;;59.92;36.72;;;15.00;99.90;;;;;;5075398;28;20727;-75
2021/10/19 03:06:08;;;;;;;57.08;35.05;;;15.00;99.90;;;;;;5094096;28;20177;-76
2021/10/19 03:08:34;;;;;;;60.13;37.33;;;15.00;99.90;;;;;;5068592;28;20219;-77
2021/10/19 03:11:01;;;;;;;64.28;38.88;;;15.00;99.90;;;;;;5086624;28;20574;-76
2021/10/19 03:13:28;;;;;;;62.03;36.17;;;15.00;99.90;;;;;;5067084;28;20259;-75
2021/10/19 03:15:55;;;;;;;61.10;38.33;;;15.00;99.90;;;;;;5069464;28;20186;-75
2021/10/19 03:18:20;;;;;;;67.47;39.42;;;15.00;99.90;;;;;;5088173;28;20178;-76
2021/10/19 03:20:46;;;;;;;61.72;39.25;;;15.00;99.90;;;;;;5093656;28;20188;-75
2021/10/19 03:23:12;;;;;;;63.45;37.85;;;15.10;99.90;;;;;;5074014;28;20198;-75
2021/10/19 03:25:37;;;;;;;65.93;39.90;;;15.10;99.90;;;;;;5085393;28;20526;-76
2021/10/19 03:28:03;;;;;;;62.63;40.03;;;15.10;99.90;;;;;;5068130;28;20641;-75
2021/10/19 03:30:29;;;;;;;63.83;39.30;;;15.10;99.90;;;;;;5087408;28;20943;-78
2021/10/19 03:32:55;;;;;;;64.32;39.55;;;15.10;99.90;;;;;;5086516;28;20200;-75
2021/10/19 03:35:20;;;;;;;65.05;39.45;;;15.10;99.90;;;;;;5086955;28;20209;-76
2021/10/19 03:37:46;;;;;;;63.55;40.33;;;15.10;99.90;;;;;;5092100;28;20186;-75
2021/10/19 03:40:12;;;;;;;65.75;39.60;;;15.10;99.90;;;;;;5099780;28;20188;-75
2021/10/19 03:42:41;;;;;;;67.63;42.25;;;15.10;99.90;;;;;;5091449;28;20227;-74
2021/10/19 03:45:08;;;;;;;63.25;41.95;;;15.10;99.90;;;;;;5073780;28;20619;-76
2021/10/19 03:47:34;;;;;;;63.40;40.88;;;15.10;99.90;;;;;;5074009;28;20200;-77
2021/10/19 03:49:59;;;;;;;69.53;41.58;;;15.10;99.90;;;;;;5088672;28;20584;-77
2021/10/19 03:52:25;;;;;;;64.68;41.15;;;15.10;99.90;;;;;;5089343;28;20634;-76
2021/10/19 03:54:51;;;;;;;69.78;42.63;;;15.10;99.90;;;;;;5074085;28;20236;-76
2021/10/19 03:57:16;;;;;;;69.10;42.22;;;15.10;99.90;;;;;;5091346;28;20182;-77
2021/10/19 03:59:42;;;;;;;66.03;42.55;;;15.10;99.90;;;;;;5096865;28;20193;-77
2021/10/19 04:02:08;;;;;;;72.82;42.40;;;15.20;99.90;;;;;;5088396;28;20181;-76
2021/10/19 04:04:35;;;;;;;72.20;42.83;;;15.20;99.90;;;;;;5105286;28;20189;-77
2021/10/19 04:07:02;;;;;;;69.22;42.88;;;15.20;99.90;;;;;;5070299;28;20197;-75
2021/10/19 04:09:28;;;;;;;65.13;42.00;;;15.20;99.90;;;;;;5091037;28;20182;-77
2021/10/19 04:11:54;;;;;;;69.07;43.13;;;15.20;99.90;;;;;;5104937;28;20225;-77
2021/10/19 04:14:20;;;;;;;68.13;42.75;;;15.20;99.90;;;;;;5088698;28;20261;-75
2021/10/19 04:16:45;;;;;;;66.57;40.75;;;15.20;99.90;;;;;;5092131;28;20182;-76
2021/10/19 04:19:11;;;;;;;73.87;46.53;;;15.20;99.90;;;;;;5089332;28;20413;-74
2021/10/19 04:21:37;;;;;;;67.88;45.38;;;15.60;99.90;;;;;;5092749;28;20413;-76
2021/10/19 04:24:02;;;;;;;65.90;41.22;;;16.00;99.90;;;;;;5086405;28;20272;-75
2021/10/19 04:26:28;;;;;;;63.70;40.42;;;15.70;99.90;;;;;;5093165;28;20303;-76
2021/10/19 04:28:54;;;;;;;64.35;39.65;;;15.60;99.90;;;;;;5072577;28;20208;-76
2021/10/19 04:31:19;;;;;;;63.95;39.17;;;15.50;99.90;;;;;;5068508;28;20217;-75
2021/10/19 04:33:45;;;;;;;61.08;38.13;;;15.40;99.90;;;;;;5093730;28;20321;-78
2021/10/19 04:36:10;;;;;;;59.95;37.40;;;15.40;99.90;;;;;;5090164;28;20188;-77
2021/10/19 04:38:36;;;;;;;60.42;36.15;;;15.40;99.90;;;;;;5066786;28;20677;-77
2021/10/19 04:41:03;;;;;;;65.90;37.42;;;15.30;99.90;;;;;;5079750;28;20208;-77
2021/10/19 04:43:28;;;;;;;60.45;35.65;;;15.30;99.90;;;;;;5086461;28;20646;-75
2021/10/19 04:45:54;;;;;;;59.95;35.70;;;15.30;99.90;;;;;;5074515;28;20190;-75
2021/10/19 04:48:23;;;;;;;59.22;35.70;;;15.30;99.90;;;;;;5095287;28;20288;-76
2021/10/19 04:50:50;;;;;;;56.80;35.47;;;15.30;99.90;;;;;;5094284;28;20197;-75
2021/10/19 04:53:16;;;;;;;57.63;35.22;;;15.30;99.90;;;;;;5098945;28;20653;-76
2021/10/19 04:55:41;;;;;;;55.85;34.40;;;15.30;99.90;;;;;;5076425;28;20197;-76
2021/10/19 04:58:07;;;;;;;57.15;34.17;;;15.30;99.90;;;;;;5093987;28;20174;-76
2021/10/19 05:00:33;;;;;;;57.03;34.33;;;15.30;99.90;;;;;;5087054;28;20239;-77
2021/10/19 05:02:58;;;;;;;56.10;34.22;;;15.30;99.90;;;;;;5094096;28;20182;-77
2021/10/19 05:05:25;;;;;;;57.75;34.10;;;15.30;99.90;;;;;;5089403;28;20197;-76
2021/10/19 05:07:51;;;;;;;63.40;39.08;;;15.30;99.90;;;;;;5088473;28;20421;-77
2021/10/19 05:10:17;;;;;;;56.55;37.30;;;15.80;99.90;;;;;;5071060;28;20418;-76
2021/10/19 05:12:43;;;;;;;56.63;36.07;;;16.10;99.90;;;;;;5076447;28;20416;-75
2021/10/19 05:15:10;;;;;;;51.53;34.47;;;16.20;99.90;;;;;;5072809;28;20455;-75
2021/10/19 05:17:37;;;;;;;47.58;30.42;;;16.30;99.90;;;;;;5079993;28;20189;-75
2021/10/19 05:20:04;;;;;;;49.03;30.23;;;16.00;99.90;;;;;;5103563;28;20982;-76
2021/10/19 05:22:30;;;;;;;54.72;32.20;;;15.80;99.90;;;;;;5079346;28;20182;-77
2021/10/19 05:24:56;;;;;;;51.45;30.83;;;15.70;99.90;;;;;;5074891;28;20205;-77
2021/10/19 05:27:22;;;;;;;52.72;31.08;;;15.60;99.90;;;;;;5094129;28;20224;-78
2021/10/19 05:29:48;;;;;;;53.25;31.33;;;15.60;99.90;;;;;;5080745;28;20185;-79
2021/10/19 05:32:14;;;;;;;50.50;29.33;;;15.50;99.90;;;;;;5073647;28;20209;-77
2021/10/19 05:34:41;;;;;;;51.33;30.70;;;15.50;99.90;;;;;;5104104;28;20197;-77
2021/10/19 05:37:06;;;;;;;51.80;30.23;;;15.50;99.90;;;;;;5097310;28;20182;-77
2021/10/19 05:39:32;;;;;;;56.13;32.08;;;15.50;99.90;;;;;;5092877;28;20635;-77
2021/10/19 05:41:59;;;;;;;51.30;30.77;;;15.50;99.90;;;;;;5093533;28;20178;-78
2021/10/19 05:44:26;;;;;;;50.55;30.77;;;15.50;99.90;;;;;;5092440;28;20201;-76
2021/10/19 05:46:52;;;;;;;57.97;32.30;;;15.50;99.90;;;;;;5093593;28;20181;-78
2021/10/19 05:49:18;;;;;;;54.55;31.95;;;15.50;99.90;;;;;;5064729;28;20190;-77
2021/10/19 05:51:44;;;;;;;54.90;32.85;;;15.50;99.90;;;;;;5089295;28;20202;-77
2021/10/19 05:54:13;;;;;;;60.60;33.70;;;15.50;99.90;;;;;;5096680;28;20185;-77
2021/10/19 05:56:39;;;;;;;59.88;33.63;;;15.50;99.90;;;;;;5068983;28;20224;-76
2021/10/19 05:59:05;;;;;;;61.85;34.33;;;15.50;99.90;;;;;;5079647;28;20656;-76
2021/10/19 06:01:31;;;;;;;63.47;35.88;;;15.50;99.90;;;;;;5090519;28;20190;-76
2021/10/19 06:03:56;;;;;;;63.00;34.90;;;15.50;99.90;;;;;;5092256;28;20186;-76
2021/10/19 06:06:22;;;;;;;67.40;35.28;;;15.50;99.90;;;;;;5097300;28;20197;-75
2021/10/19 06:08:51;;;;;;;69.28;36.95;;;15.50;99.90;;;;;;5094766;28;20272;-75
2021/10/19 06:11:20;;;;;;;68.10;37.42;;;15.50;99.90;;;;;;5098383;28;20240;-76
2021/10/19 06:13:45;;;;;;;67.07;35.63;;;15.50;99.90;;;;;;5114244;27;20192;-75
2021/10/19 06:16:11;;;;;;;74.70;38.13;;;15.50;99.90;;;;;;5096910;28;20265;-74
2021/10/19 06:18:37;;;;;;;74.35;37.88;;;15.50;99.90;;;;;;5087002;28;20193;-75
2021/10/19 06:21:03;;;;;;;75.25;37.65;;;15.50;99.90;;;;;;5072088;28;20846;-77
2021/10/19 06:23:30;;;;;;;70.15;37.28;;;15.50;99.90;;;;;;5086486;28;20312;-75
2021/10/19 06:25:55;;;;;;;71.97;36.22;;;15.60;99.90;;;;;;5073783;28;20205;-76
2021/10/19 06:28:21;;;;;;;67.15;35.53;;;15.60;99.90;;;;;;5093716;28;20622;-75
2021/10/19 06:30:47;;;;;;;64.68;35.60;;;15.60;99.90;;;;;;5088316;28;20765;-74
2021/10/19 06:33:13;;;;;;;66.75;35.70;;;15.60;99.90;;;;;;5078203;28;20220;-76
2021/10/19 06:35:40;;;;;;;72.88;35.42;;;15.60;99.90;;;;;;5089728;28;20205;-75
2021/10/19 06:38:06;;;;;;;66.30;34.70;;;15.60;99.90;;;;;;5105553;27;20195;-75
2021/10/19 06:40:31;;;;;;;68.03;35.47;;;15.60;99.90;;;;;;5088815;28;20185;-75
2021/10/19 06:42:57;;;;;;;69.80;35.17;;;15.60;99.90;;;;;;5087490;28;20243;-75
2021/10/19 06:45:23;;;;;;;73.20;35.28;;;15.60;99.90;;;;;;5092636;28;20189;-76
2021/10/19 06:47:49;;;;;;;70.53;34.20;;;15.60;99.90;;;;;;5093302;28;20185;-77
2021/10/19 06:50:15;;;;;;;71.85;34.67;;;15.70;99.90;;;;;;5095810;28;20194;-75
2021/10/19 06:52:41;;;;;;;73.68;35.15;;;15.60;99.90;;;;;;5067978;28;20177;-75
2021/10/19 06:55:07;;;;;;;66.35;33.42;;;15.70;99.90;;;;;;5058593;28;20193;-73
2021/10/19 06:57:44;;;;;;;71.53;35.10;;;15.70;99.90;;;;;;5080727;28;20269;-73
2021/10/19 07:00:15;;;;;;;67.93;34.80;;;15.70;99.90;;;;;;5097897;28;20969;-73
2021/10/19 07:02:41;;;;;;;77.35;35.50;;;15.70;99.90;;;;;;5085316;28;20209;-74
2021/10/19 07:05:07;;;;;;;80.55;34.85;;;15.70;99.90;;;;;;5087606;28;20944;-73
2021/10/19 07:07:33;;;;;;;61.78;32.63;;;15.70;99.90;;;;;;5067721;28;20232;-73
2021/10/19 07:10:00;;;;;;;73.28;34.10;;;15.70;99.90;;;;;;5100745;28;20710;-73
2021/10/19 07:12:27;;;;;;;70.95;34.75;;;15.70;99.90;;;;;;5085470;28;20230;-72
2021/10/19 07:14:52;;;;;;;75.10;34.45;;;15.80;99.90;;;;;;5086163;28;20186;-73
2021/10/19 07:17:18;;;;;;;68.30;33.72;;;15.80;99.90;;;;;;5091803;28;20788;-73
2021/10/19 07:19:46;;;;;;;69.60;33.80;;;15.80;99.90;;;;;;5086503;28;20209;-73
2021/10/19 07:22:12;;;;;;;64.55;32.45;;;15.80;99.90;;;;;;5089357;28;20186;-73
2021/10/19 07:24:37;;;;;;;66.63;32.40;;;15.80;99.90;;;;;;5086169;28;20280;-74
2021/10/19 07:27:03;;;;;;;65.18;31.70;;;15.80;99.90;;;;;;5085550;28;21004;-74
2021/10/19 07:29:28;;;;;;;67.55;32.55;;;15.80;99.90;;;;;;5115020;27;20193;-73
2021/10/19 07:31:54;;;;;;;73.07;32.40;;;15.80;99.90;;;;;;5076713;28;20205;-73
2021/10/19 07:34:20;;;;;;;81.97;38.30;;;15.90;99.90;;;;;;5090552;28;20791;-75
2021/10/19 07:36:46;;;;;;;73.45;35.78;;;16.30;99.90;;;;;;5084940;28;20813;-72
2021/10/19 07:39:12;;;;;;;73.82;37.15;;;16.60;99.90;;;;;;5085731;28;20455;-74
2021/10/19 07:41:38;;;;;;;69.68;35.05;;;16.80;99.90;;;;;;5087892;28;20498;-73
2021/10/19 07:44:06;;;;;;;60.97;30.65;;;16.90;99.90;;;;;;5069131;28;20647;-75
2021/10/19 07:46:34;;;;;;;58.10;29.60;;;16.60;99.90;;;;;;5090556;28;20614;-73
2021/10/19 07:49:00;;;;;;;59.88;28.95;;;16.40;99.90;;;;;;5097913;28;20195;-73
2021/10/19 07:51:25;;;;;;;56.25;29.05;;;16.30;99.90;;;;;;5094187;28;20670;-73
2021/10/19 07:53:51;;;;;;;56.40;28.08;;;16.30;99.90;;;;;;5067284;28;20217;-73
2021/10/19 07:56:20;;;;;;;57.72;27.75;;;16.20;99.90;;;;;;5074777;28;20186;-73
2021/10/19 07:58:46;;;;;;;59.85;29.10;;;16.20;99.90;;;;;;5089523;28;20186;-74
2021/10/19 08:01:11;;;;;;;53.25;26.52;;;16.20;99.90;;;;;;5092100;28;20943;-74
2021/10/19 08:03:37;;;;;;;57.92;27.08;;;16.10;99.90;;;;;;5091873;28;20247;-73
2021/10/19 08:06:03;;;;;;;51.78;27.25;;;16.20;99.90;;;;;;5090138;28;20186;-73
2021/10/19 08:08:31;;;;;;;55.15;26.88;;;16.20;99.90;;;;;;5085694;28;20190;-73
2021/10/19 08:10:57;;;;;;;52.35;26.55;;;16.20;99.90;;;;;;5090649;28;20213;-72
2021/10/19 08:13:23;;;;;;;52.95;26.88;;;16.20;99.90;;;;;;5087767;28;20265;-72
2021/10/19 08:15:48;;;;;;;48.90;25.58;;;16.20;99.90;;;;;;5068423;28;20186;-70
2021/10/19 08:18:15;;;;;;;49.13;24.10;;;16.20;99.90;;;;;;5088291;28;20181;-74
2021/10/19 08:20:41;;;;;;;44.83;23.13;;;16.30;99.90;;;;;;5095507;28;20181;-74
2021/10/19 08:23:07;;;;;;;40.88;21.35;;;16.30;99.90;;;;;;5093349;28;20197;-73
2021/10/19 08:25:33;;;;;;;40.70;21.55;;;16.30;99.90;;;;;;5068360;28;20185;-72
2021/10/19 08:27:58;;;;;;;38.92;21.25;;;16.30;99.90;;;;;;5092403;28;20184;-72
2021/10/19 08:30:24;;;;;;;36.97;19.77;;;16.30;99.90;;;;;;5091775;28;20628;-73
2021/10/19 08:32:51;;;;;;;36.83;18.15;;;16.30;99.90;;;;;;5089005;28;20177;-73
2021/10/19 08:35:18;;;;;;;32.65;17.42;;;16.30;99.90;;;;;;5091018;28;20215;-72
2021/10/19 08:37:45;;;;;;;32.67;16.90;;;16.30;99.90;;;;;;5089242;28;20182;-74
2021/10/19 08:40:12;;;;;;;30.27;16.75;;;16.40;99.90;;;;;;5100847;28;20182;-73
2021/10/19 08:42:44;;;;;;;30.27;16.35;;;16.40;99.90;;;;;;5092414;28;20188;-73
2021/10/19 08:45:12;;;;;;;28.95;15.25;;;16.40;99.90;;;;;;5099422;28;20253;-74
2021/10/19 08:47:40;;;;;;;28.08;14.95;;;16.40;99.90;;;;;;5092888;28;20818;-74
2021/10/19 08:50:06;;;;;;;26.23;14.38;;;16.40;99.90;;;;;;5090506;28;20273;-74
2021/10/19 08:52:32;;;;;;;25.02;14.60;;;16.50;99.90;;;;;;5088687;28;20244;-74
2021/10/19 08:54:58;;;;;;;26.30;14.25;;;16.50;99.90;;;;;;5105164;28;20281;-74
2021/10/19 08:57:23;;;;;;;26.83;14.73;;;16.50;99.90;;;;;;5090724;28;20231;-74
2021/10/19 08:59:49;;;;;;;24.77;13.82;;;16.50;99.90;;;;;;5075596;28;20176;-73
2021/10/19 09:02:15;;;;;;;22.05;13.10;;;16.50;99.90;;;;;;5098724;28;20218;-73
2021/10/19 09:04:42;;;;;;;22.65;13.20;;;16.60;99.90;;;;;;5071138;28;20231;-73
2021/10/19 09:07:08;;;;;;;22.92;12.77;;;16.60;99.90;;;;;;5074268;28;20653;-74
2021/10/19 09:09:35;;;;;;;23.02;13.10;;;16.60;99.90;;;;;;5105754;28;20212;-74
2021/10/19 09:12:02;;;;;;;25.92;14.20;;;16.60;99.90;;;;;;5096923;28;20690;-74
2021/10/19 09:14:33;;;;;;;26.63;14.70;;;16.60;99.90;;;;;;5098348;28;20208;-74
2021/10/19 09:17:00;;;;;;;26.55;14.85;;;16.60;99.90;;;;;;5086345;28;20196;-74
2021/10/19 09:19:27;;;;;;;26.27;14.23;;;16.60;99.90;;;;;;5073844;28;20178;-74
2021/10/19 09:22:05;;;;;;;28.35;15.15;;;16.60;99.90;;;;;;5073484;28;20193;-75
2021/10/19 09:24:34;;;;;;;32.78;16.42;;;16.70;99.90;;;;;;5087130;28;20185;-74
2021/10/19 09:27:12;;;;;;;32.70;18.13;;;16.70;99.90;;;;;;5074359;28;20210;-73
2021/10/19 09:29:50;;;;;;;39.17;19.60;;;16.70;99.90;;;;;;5080170;28;20185;-74
2021/10/19 09:32:18;;;;;;;41.70;20.58;;;16.70;99.90;;;;;;5093724;28;20209;-72
2021/10/19 09:34:45;;;;;;;38.80;20.85;;;16.80;99.90;;;;;;5096999;28;20185;-74
2021/10/19 09:37:17;;;;;;;39.42;23.42;;;16.80;99.90;;;;;;5096763;28;20411;-73
2021/10/19 09:39:48;;;;;;;40.58;23.88;;;17.30;99.90;;;;;;5076012;28;20475;-72
2021/10/19 09:42:22;;;;;;;41.15;22.80;;;17.60;99.90;;;;;;5074000;28;20186;-75
2021/10/19 09:44:58;;;;;;;43.78;24.30;;;17.40;99.90;;;;;;5088250;28;20190;-73
2021/10/19 09:47:25;;;;;;;45.45;25.33;;;17.30;99.90;;;;;;5088484;28;20263;-73
2021/10/19 09:49:53;;;;;;;56.28;27.45;;;17.20;99.90;;;;;;5089106;28;21175;-73
2021/10/19 09:52:19;;;;;;;59.03;28.80;;;17.10;99.90;;;;;;5069477;28;20225;-72
2021/10/19 09:54:49;;;;;;;57.80;28.63;;;17.20;99.90;;;;;;5088312;28;20189;-72
2021/10/19 09:57:16;;;;;;;62.35;28.58;;;17.20;99.90;;;;;;5053552;28;20616;-72
2021/10/19 09:59:42;;;;;;;61.33;28.85;;;17.20;99.90;;;;;;5097637;28;20205;-74
2021/10/19 10:02:11;;;;;;;59.85;29.05;;;17.20;99.90;;;;;;5060909;28;20229;-73
2021/10/19 10:04:36;;;;;;;57.85;27.92;;;17.20;99.90;;;;;;5087545;28;20196;-72
2021/10/19 10:07:02;;;;;;;57.55;28.20;;;17.30;99.90;;;;;;5086372;28;20194;-74
2021/10/19 10:09:28;;;;;;;59.65;29.33;;;17.30;99.90;;;;;;5089181;28;20629;-74
2021/10/19 10:11:54;;;;;;;48.90;24.98;;;17.40;99.90;;;;;;5086449;28;20275;-73
2021/10/19 10:14:19;;;;;;;46.42;24.88;;;17.40;99.90;;;;;;5088534;28;20185;-73
2021/10/19 10:16:48;;;;;;;46.22;25.05;;;17.40;99.90;;;;;;5088158;28;20178;-73
2021/10/19 10:19:19;;;;;;;37.65;22.45;;;17.40;99.90;;;;;;5103428;28;20205;-72
2021/10/19 10:21:54;;;;;;;38.50;22.30;;;17.50;99.90;;;;;;5087963;28;20197;-74
2021/10/19 10:24:28;;;;;;;39.88;21.23;;;17.50;99.90;;;;;;5103832;27;20212;-74
2021/10/19 10:27:12;;;;;;;33.55;20.60;;;17.60;99.90;;;;;;5068713;28;20212;-75
2021/10/19 10:29:42;;;;;;;34.65;19.85;;;17.60;99.90;;;;;;5090282;28;20193;-74
2021/10/19 10:32:37;;;;;;;31.83;19.48;;;17.60;99.90;;;;;;5068840;28;20213;-75
2021/10/19 10:35:07;;;;;;;29.95;18.25;;;17.70;99.90;;;;;;5088343;28;20186;-73
2021/10/19 10:37:51;;;;;;;27.65;16.58;;;17.70;99.90;;;;;;5087066;28;20185;-74
2021/10/19 10:40:26;;;;;;;24.40;16.90;;;17.70;99.90;;;;;;5087918;28;20202;-74
2021/10/19 10:42:51;;;;;;;21.63;14.75;;;17.70;99.90;;;;;;5085866;28;20554;-75
2021/10/19 10:45:27;;;;;;;20.50;13.85;;;17.70;99.90;;;;;;5095236;28;20189;-74
2021/10/19 10:47:59;;;;;;;21.85;14.05;;;17.70;99.90;;;;;;5086277;28;20812;-74
2021/10/19 10:50:26;;;;;;;22.10;14.10;;;17.80;99.90;;;;;;5095217;28;20220;-73
2021/10/19 10:53:09;;;;;;;25.73;15.68;;;17.80;99.90;;;;;;5089185;28;20202;-75
2021/10/19 10:55:43;;;;;;;27.25;16.35;;;17.80;99.90;;;;;;5068927;28;20205;-73
2021/10/19 10:58:09;;;;;;;27.05;15.63;;;17.80;99.90;;;;;;5080444;28;20182;-72
2021/10/19 11:00:34;;;;;;;26.48;15.65;;;17.80;99.90;;;;;;5081507;28;20261;-72
2021/10/19 11:03:15;;;;;;;23.05;14.85;;;17.80;99.90;;;;;;5079555;28;20190;-72
2021/10/19 11:05:57;;;;;;;20.15;14.27;;;17.90;99.90;;;;;;5078819;28;20205;-72
2021/10/19 11:08:26;;;;;;;24.58;13.27;;;17.90;99.90;;;;;;5078707;28;20201;-73
2021/10/19 11:11:13;;;;;;;19.13;12.40;;;17.90;99.90;;;;;;5076239;28;20441;-72
2021/10/19 11:14:03;;;;;;;15.38;11.50;;;18.00;99.90;;;;;;5101185;27;20232;-74
2021/10/19 11:16:33;;;;;;;16.10;11.95;;;18.00;99.90;;;;;;5085160;28;20182;-73
2021/10/19 11:19:01;;;;;;;16.60;11.23;;;18.00;99.90;;;;;;5082982;28;20665;-74
2021/10/19 11:21:27;;;;;;;15.20;10.95;;;18.10;99.90;;;;;;5066721;28;20186;-73
2021/10/19 11:23:53;;;;;;;16.52;11.40;;;18.10;99.90;;;;;;5080495;28;20640;-73
2021/10/19 11:26:18;;;;;;;21.02;11.85;;;18.10;99.90;;;;;;5084145;28;20193;-74
2021/10/19 11:28:45;;;;;;;20.35;13.13;;;18.10;99.90;;;;;;5084413;28;20206;-73
2021/10/19 11:31:13;;;;;;;23.67;15.07;;;18.10;99.90;;;;;;5067522;28;20228;-73
2021/10/19 11:33:41;;;;;;;35.08;17.02;;;18.00;99.90;;;;;;5081442;28;20243;-73
2021/10/19 11:36:09;;;;;;;33.13;17.23;;;18.10;99.90;;;;;;5078242;28;20683;-73
2021/10/19 11:38:43;;;;;;;39.72;17.50;;;18.00;99.90;;;;;;5078435;28;20179;-73
2021/10/19 11:41:13;;;;;;;38.28;18.40;;;18.00;99.90;;;;;;5067110;28;20715;-74
2021/10/19 11:44:06;;;;;;;38.75;19.25;;;17.90;99.90;;;;;;5066885;28;20276;-72
2021/10/19 11:46:37;;;;;;;45.35;19.23;;;17.90;99.90;;;;;;5081686;28;20210;-71
2021/10/19 11:49:15;;;;;;;38.45;18.10;;;17.90;99.90;;;;;;5067411;28;20637;-74
2021/10/19 11:51:49;;;;;;;37.40;18.23;;;17.90;99.90;;;;;;5079525;28;20626;-74
2021/10/19 11:54:16;;;;;;;37.80;17.73;;;17.90;99.90;;;;;;5077340;28;20190;-74
2021/10/19 11:56:57;;;;;;;36.08;16.27;;;17.90;99.90;;;;;;5067788;28;20217;-74
2021/10/19 11:59:23;;;;;;;39.38;17.35;;;17.90;99.90;;;;;;5082733;28;20189;-74
2021/10/19 12:01:52;;;;;;;33.25;16.15;;;17.80;99.90;;;;;;5079943;28;20725;-74
2021/10/19 12:04:22;;;;;;;34.40;15.85;;;17.80;99.90;;;;;;5067967;28;20495;-73
2021/10/19 12:06:47;;;;;;;36.15;16.70;;;17.90;99.90;;;;;;5085809;28;20224;-74
2021/10/19 12:09:19;;;;;;;38.40;15.93;;;17.90;99.90;;;;;;5089837;28;20211;-73
2021/10/19 12:11:57;;;;;;;37.85;17.27;;;18.00;99.90;;;;;;5085029;28;20478;-72
2021/10/19 12:14:34;;;;;;;29.92;15.57;;;18.40;99.90;;;;;;5099376;28;20521;-73
2021/10/19 12:17:05;;;;;;;38.47;16.10;;;18.70;99.90;;;;;;5084738;28;20192;-73
2021/10/19 12:19:32;;;;;;;37.83;15.50;;;18.50;99.90;;;;;;5088855;28;20205;-73
2021/10/19 12:22:02;;;;;;;37.15;14.98;;;18.40;99.90;;;;;;5067430;28;20190;-74
2021/10/19 12:24:29;;;;;;;36.95;15.73;;;18.40;99.90;;;;;;5086598;28;20181;-73
2021/10/19 12:27:03;;;;;;;39.05;15.40;;;18.30;99.90;;;;;;5086799;28;20182;-73
2021/10/19 12:29:31;;;;;;;33.75;15.35;;;18.30;99.90;;;;;;5084923;28;20218;-74